Time;durP1;ratioP1;P1;durP2;ratioP2;P2;SDS_P1;SDS_P2;PMS_P1;PMS_P2;Temp;Humidity;BMP_temperature;BMP_pressure;BME280_temperature;BME280_humidity;BME280_pressure;Samples;Min_cycle;Max_cycle;Signal;HPM_P1;HPM_P2
2023/12/19 00:00:28;;;;;;;1.37;1.07;;;;;;;9.63;93.36;102628.09;2078812;28;20628;-62
2023/12/19 00:01:28;;;;;;;2.10;1.30;;;;;;;9.66;92.79;102632.84;2078922;28;20207;-63
2023/12/19 00:02:29;;;;;;;2.00;1.20;;;;;;;9.71;92.04;102632.50;2078971;28;20449;-62
2023/12/19 00:03:29;;;;;;;1.80;1.10;;;;;;;9.74;91.79;102640.06;2078396;28;20652;-62
2023/12/19 00:04:33;;;;;;;1.97;1.07;;;;;;;9.73;91.92;102639.25;2078710;28;20221;-62
2023/12/19 00:05:33;;;;;;;1.60;1.00;;;;;;;9.67;92.09;102640.78;2080121;28;20196;-62
2023/12/19 00:06:34;;;;;;;2.13;1.10;;;;;;;9.63;92.38;102628.09;2078541;28;20448;-62
2023/12/19 00:07:34;;;;;;;2.07;1.03;;;;;;;9.63;92.26;102642.72;2077273;28;20202;-62
2023/12/19 00:08:36;;;;;;;1.53;0.90;;;;;;;9.69;91.43;102629.34;2078448;28;20685;-63
2023/12/19 00:09:37;;;;;;;1.87;1.10;;;;;;;9.67;91.66;102629.72;2078851;28;20192;-62
2023/12/19 00:10:37;;;;;;;2.13;1.20;;;;;;;9.51;91.41;102600.63;2078632;28;20431;-62
2023/12/19 00:11:38;;;;;;;2.67;1.10;;;;;;;9.38;91.50;102569.66;2079145;28;20600;-62
2023/12/19 00:12:38;;;;;;;1.83;1.20;;;;;;;9.68;91.63;102614.69;2078972;28;20181;-62
2023/12/19 00:13:39;;;;;;;1.60;1.10;;;;;;;9.74;91.23;102621.47;2079327;28;20188;-62
2023/12/19 00:14:39;;;;;;;2.07;1.10;;;;;;;9.73;90.72;102605.25;2077831;28;20205;-62
2023/12/19 00:15:40;;;;;;;2.17;1.17;;;;;;;9.83;90.66;102626.69;2079719;28;20580;-62
2023/12/19 00:16:41;;;;;;;1.60;1.00;;;;;;;9.84;90.59;102620.00;2079479;28;20192;-62
2023/12/19 00:17:43;;;;;;;1.30;1.00;;;;;;;9.78;90.79;102619.53;2079584;28;20212;-62
2023/12/19 00:18:43;;;;;;;2.17;1.17;;;;;;;9.71;91.23;102618.66;2078593;28;20176;-62
2023/12/19 00:19:44;;;;;;;1.80;1.20;;;;;;;8.92;91.70;102504.66;2079219;28;20425;-62
2023/12/19 00:20:44;;;;;;;2.27;1.00;;;;;;;9.75;92.10;102628.63;2080102;28;20197;-62
2023/12/19 00:21:45;;;;;;;1.90;1.00;;;;;;;9.73;92.38;102628.19;2079539;28;20289;-62
2023/12/19 00:22:46;;;;;;;1.93;1.27;;;;;;;9.76;92.65;102621.91;2079160;28;20193;-62
2023/12/19 00:23:46;;;;;;;2.23;1.20;;;;;;;9.77;92.61;102620.72;2079228;28;20210;-62
2023/12/19 00:24:46;;;;;;;2.23;1.20;;;;;;;9.78;92.64;102621.53;2078793;28;20549;-62
2023/12/19 00:25:47;;;;;;;1.63;0.90;;;;;;;9.83;93.51;102623.94;2079049;28;20678;-63
2023/12/19 00:26:47;;;;;;;1.70;1.20;;;;;;;9.82;93.18;102627.88;2079154;28;20196;-62
2023/12/19 00:27:48;;;;;;;5.37;1.57;;;;;;;8.88;92.70;102481.72;2078411;28;20204;-62
2023/12/19 00:28:49;;;;;;;2.33;1.20;;;;;;;9.75;93.43;102623.09;2078723;28;20189;-63
2023/12/19 00:29:49;;;;;;;2.60;1.30;;;;;;;9.76;93.08;102621.09;2078387;28;20204;-62
2023/12/19 00:30:50;;;;;;;2.23;1.13;;;;;;;9.67;92.00;102615.88;2078320;28;20201;-62
2023/12/19 00:31:51;;;;;;;1.93;1.00;;;;;;;9.30;92.27;102573.53;2079393;28;20193;-62
2023/12/19 00:32:52;;;;;;;2.63;1.60;;;;;;;9.54;92.31;102616.50;2078829;28;20197;-62
2023/12/19 00:33:53;;;;;;;1.90;1.40;;;;;;;8.80;92.37;102501.34;2079853;28;20818;-62
2023/12/19 00:34:53;;;;;;;1.83;1.20;;;;;;;9.55;92.29;102632.75;2079083;28;20465;-62
2023/12/19 00:35:54;;;;;;;2.30;1.10;;;;;;;9.52;92.75;102627.13;2079307;28;20212;-62
2023/12/19 00:36:54;;;;;;;3.33;1.13;;;;;;;9.52;93.03;102625.19;2079121;28;20195;-62
2023/12/19 00:37:55;;;;;;;2.57;1.23;;;;;;;9.44;93.33;102629.00;2079337;28;20239;-62
2023/12/19 00:38:55;;;;;;;2.10;1.40;;;;;;;8.35;93.27;102460.06;2079299;28;20247;-62
2023/12/19 00:39:56;;;;;;;2.87;1.20;;;;;;;9.33;93.80;102628.09;2078535;28;20224;-62
2023/12/19 00:40:56;;;;;;;2.63;1.10;;;;;;;9.35;94.00;102630.50;2077892;28;20206;-62
2023/12/19 00:41:57;;;;;;;1.20;0.90;;;;;;;9.37;94.17;102634.47;2078369;28;20181;-62
2023/12/19 00:42:57;;;;;;;2.83;1.30;;;;;;;9.39;94.43;102631.34;2078311;28;20227;-62
2023/12/19 00:44:00;;;;;;;2.10;1.17;;;;;;;9.39;94.10;102629.34;2077714;28;20566;-62
2023/12/19 00:45:00;;;;;;;1.80;1.13;;;;;;;9.37;94.41;102637.25;2078257;28;20279;-62
2023/12/19 00:46:01;;;;;;;1.97;1.20;;;;;;;9.39;94.62;102632.13;2079674;28;20496;-62
2023/12/19 00:47:02;;;;;;;1.80;1.10;;;;;;;9.39;94.24;102639.63;2079291;28;20242;-62
2023/12/19 00:48:03;;;;;;;1.83;0.93;;;;;;;9.31;94.96;102637.94;2079121;28;20280;-62
2023/12/19 00:49:04;;;;;;;1.47;1.07;;;;;;;9.29;94.75;102632.81;2078687;28;20444;-62
2023/12/19 00:50:07;;;;;;;2.40;1.17;;;;;;;8.93;95.17;102582.91;2079176;28;20192;-62
2023/12/19 00:51:10;;;;;;;2.17;1.20;;;;;;;9.32;95.56;102634.03;2078883;28;20192;-62
2023/12/19 00:52:10;;;;;;;2.57;1.17;;;;;;;9.35;95.94;102639.59;2079274;28;20438;-63
2023/12/19 00:53:11;;;;;;;2.67;0.93;;;;;;;9.40;96.25;102644.81;2078855;28;20423;-62
2023/12/19 00:54:11;;;;;;;2.33;1.20;;;;;;;9.43;96.27;102641.25;2079124;28;20690;-62
2023/12/19 00:55:12;;;;;;;3.90;1.10;;;;;;;9.49;95.72;102638.97;2079734;28;20212;-62
2023/12/19 00:56:12;;;;;;;1.80;0.97;;;;;;;9.51;95.33;102642.16;2078562;28;20200;-62
2023/12/19 00:57:13;;;;;;;3.23;1.57;;;;;;;9.54;94.89;102636.66;2078992;28;20246;-62
2023/12/19 00:58:13;;;;;;;1.63;1.03;;;;;;;9.54;93.99;102639.44;2078368;28;20744;-62
2023/12/19 00:59:14;;;;;;;3.00;1.00;;;;;;;8.90;93.89;102559.56;2077375;28;20686;-62
2023/12/19 01:00:15;;;;;;;2.37;1.40;;;;;;;9.28;94.39;102633.94;2077578;28;20212;-62
2023/12/19 01:01:22;;;;;;;2.07;1.20;;;;;;;9.23;95.34;102631.50;2079632;28;20212;-62
2023/12/19 01:02:23;;;;;;;2.53;1.40;;;;;;;9.10;95.73;102605.28;2079762;28;20229;-62
2023/12/19 01:03:23;;;;;;;2.50;1.30;;;;;;;9.24;95.76;102627.59;2078903;28;20526;-62
2023/12/19 01:04:24;;;;;;;2.23;1.13;;;;;;;9.27;96.42;102624.06;2078877;28;20551;-62
2023/12/19 01:05:24;;;;;;;2.00;1.13;;;;;;;9.29;96.41;102623.69;2079469;28;20246;-62
2023/12/19 01:06:25;;;;;;;1.83;1.13;;;;;;;9.30;96.42;102617.78;2078064;28;20662;-63
2023/12/19 01:07:26;;;;;;;3.87;1.60;;;;;;;8.54;96.19;102490.31;2078996;28;20216;-62
2023/12/19 01:08:27;;;;;;;2.13;1.23;;;;;;;8.93;96.39;102558.81;2078792;28;20688;-63
2023/12/19 01:09:27;;;;;;;4.00;1.50;;;;;;;9.35;96.30;102622.19;2078338;28;20263;-62
2023/12/19 01:10:28;;;;;;;2.20;1.20;;;;;;;9.37;96.15;102622.63;2079670;28;20185;-62
2023/12/19 01:11:28;;;;;;;2.73;1.50;;;;;;;9.38;95.92;102619.47;2078454;28;20681;-62
2023/12/19 01:12:29;;;;;;;2.93;1.40;;;;;;;9.40;96.32;102619.91;2079008;28;20191;-62
2023/12/19 01:13:29;;;;;;;1.33;1.17;;;;;;;9.36;96.08;102613.50;2079246;28;20195;-62
2023/12/19 01:14:30;;;;;;;1.73;1.17;;;;;;;9.33;96.77;102621.78;2079052;28;20220;-62
2023/12/19 01:15:30;;;;;;;1.47;0.80;;;;;;;9.34;96.72;102617.81;2079287;28;20196;-62
2023/12/19 01:16:31;;;;;;;3.20;1.13;;;;;;;8.98;96.56;102555.69;2078646;28;20192;-62
2023/12/19 01:17:32;;;;;;;1.53;0.93;;;;;;;9.31;96.86;102624.91;2079207;28;20188;-62
2023/12/19 01:18:32;;;;;;;1.50;0.97;;;;;;;9.26;97.37;102618.91;2079063;28;20212;-62
2023/12/19 01:19:33;;;;;;;1.77;1.03;;;;;;;9.26;97.19;102619.72;2077908;28;20195;-62
2023/12/19 01:20:34;;;;;;;1.97;1.10;;;;;;;9.24;97.17;102615.72;2079175;28;20212;-62
2023/12/19 01:21:34;;;;;;;3.33;1.30;;;;;;;9.18;97.68;102615.25;2078965;28;20953;-62
2023/12/19 01:22:35;;;;;;;2.87;1.20;;;;;;;9.20;97.43;102625.94;2078502;28;20282;-62
2023/12/19 01:23:35;;;;;;;3.33;1.50;;;;;;;9.26;97.58;102619.72;2078569;28;20196;-62
2023/12/19 01:24:36;;;;;;;2.00;1.20;;;;;;;8.93;97.47;102569.88;2078515;28;20189;-62
2023/12/19 01:25:37;;;;;;;2.40;1.10;;;;;;;9.10;97.61;102596.97;2077935;28;20263;-62
2023/12/19 01:26:38;;;;;;;1.87;1.00;;;;;;;9.28;98.09;102614.59;2079160;28;20181;-62
2023/12/19 01:27:38;;;;;;;2.30;1.03;;;;;;;9.32;97.98;102607.13;2079293;28;20449;-62
2023/12/19 01:28:39;;;;;;;2.50;1.20;;;;;;;8.88;97.84;102531.50;2078557;28;20628;-62
2023/12/19 01:29:41;;;;;;;1.83;1.13;;;;;;;9.35;97.71;102598.09;2080261;28;20650;-62
2023/12/19 01:30:42;;;;;;;2.57;1.20;;;;;;;9.44;97.11;102604.09;2080286;28;20204;-63
2023/12/19 01:31:42;;;;;;;1.50;1.00;;;;;;;9.52;96.50;102602.22;2080107;28;20852;-62
2023/12/19 01:32:43;;;;;;;1.63;1.07;;;;;;;9.51;96.63;102600.63;2078784;28;20439;-62
2023/12/19 01:33:43;;;;;;;1.70;1.07;;;;;;;9.50;96.71;102601.81;2079728;28;20252;-62
2023/12/19 01:34:44;;;;;;;2.67;1.23;;;;;;;9.50;96.84;102599.03;2080427;28;20201;-62
2023/12/19 01:35:45;;;;;;;2.23;1.00;;;;;;;9.56;96.36;102601.13;2080925;28;20200;-62
2023/12/19 01:36:45;;;;;;;2.13;1.10;;;;;;;9.54;96.11;102597.13;2080312;28;20227;-62
2023/12/19 01:37:46;;;;;;;1.70;1.00;;;;;;;8.72;96.47;102470.03;2080749;28;20200;-62
2023/12/19 01:38:46;;;;;;;1.47;0.90;;;;;;;8.71;96.29;102470.44;2079880;28;20202;-62
2023/12/19 01:39:47;;;;;;;1.90;1.03;;;;;;;9.49;96.51;102592.69;2079520;28;20276;-62
2023/12/19 01:40:47;;;;;;;1.57;0.97;;;;;;;9.56;96.21;102594.75;2078940;28;20196;-62
2023/12/19 01:41:48;;;;;;;2.10;1.20;;;;;;;9.57;96.28;102599.13;2080944;28;20193;-62
2023/12/19 01:42:48;;;;;;;2.13;1.10;;;;;;;9.55;97.30;102598.72;2079893;28;20205;-62
2023/12/19 01:43:49;;;;;;;2.13;1.03;;;;;;;9.58;97.36;102586.91;2080926;28;20268;-62
2023/12/19 01:45:09;;;;;;;3.03;1.07;;;;;;;9.70;96.60;102603.25;2080363;28;20196;-63
2023/12/19 01:46:16;;;;;;;3.50;1.37;;;;;;;9.70;96.43;102608.78;2080760;28;20700;-62
2023/12/19 01:47:17;;;;;;;5.07;1.30;;;;;;;9.69;96.13;102607.19;2080373;28;20480;-62
2023/12/19 01:48:18;;;;;;;2.30;1.10;;;;;;;9.66;96.31;102602.41;2079615;28;20453;-62
2023/12/19 01:49:18;;;;;;;1.60;1.10;;;;;;;9.64;96.44;102596.44;2079583;28;20662;-62
2023/12/19 01:50:20;;;;;;;4.00;1.20;;;;;;;9.59;96.61;102580.19;2079789;28;20899;-62
2023/12/19 01:51:20;;;;;;;3.40;1.40;;;;;;;9.29;96.62;102527.66;2080485;28;20312;-62
2023/12/19 01:52:21;;;;;;;1.57;1.00;;;;;;;9.69;96.05;102585.03;2079879;28;20501;-62
2023/12/19 01:53:23;;;;;;;1.80;1.00;;;;;;;9.63;96.05;102587.34;2080608;28;20702;-62
2023/12/19 01:54:24;;;;;;;2.43;1.20;;;;;;;9.66;95.75;102574.72;2080121;28;20189;-62
2023/12/19 01:55:27;;;;;;;1.70;1.00;;;;;;;8.98;95.83;102475.50;2080572;28;20937;-63
2023/12/19 01:56:27;;;;;;;2.07;0.90;;;;;;;9.71;95.17;102585.44;2080121;28;20447;-62
2023/12/19 01:57:29;;;;;;;1.53;1.10;;;;;;;9.75;95.53;102589.88;2080656;28;21009;-62
2023/12/19 01:58:30;;;;;;;1.90;1.00;;;;;;;9.81;95.00;102587.53;2080455;28;20185;-62
2023/12/19 01:59:31;;;;;;;1.50;1.00;;;;;;;9.81;94.83;102595.84;2079997;28;20495;-62
2023/12/19 02:00:33;;;;;;;1.60;1.00;;;;;;;9.76;94.83;102585.09;2079929;28;20523;-63
2023/12/19 02:01:35;;;;;;;1.60;0.87;;;;;;;9.77;94.85;102587.50;2080668;28;20563;-62
2023/12/19 02:02:35;;;;;;;1.90;1.07;;;;;;;9.66;95.26;102583.81;2081075;28;21768;-62
2023/12/19 02:03:36;;;;;;;1.87;0.90;;;;;;;9.76;95.47;102590.63;2080414;28;20534;-62
2023/12/19 02:04:37;;;;;;;2.10;1.07;;;;;;;9.76;95.12;102585.91;2079853;28;20591;-62
2023/12/19 02:05:39;;;;;;;2.50;1.10;;;;;;;9.71;95.30;102591.78;2080261;28;20669;-62
2023/12/19 02:06:39;;;;;;;1.33;0.80;;;;;;;9.60;95.51;102590.06;2080227;28;20443;-62
2023/12/19 02:07:40;;;;;;;2.67;0.97;;;;;;;9.59;96.29;102586.50;2080127;28;20454;-62
2023/12/19 02:08:40;;;;;;;1.03;0.90;;;;;;;9.59;96.55;102586.50;2079482;28;20210;-62
2023/12/19 02:09:41;;;;;;;1.80;0.90;;;;;;;9.56;96.83;102569.84;2080430;28;20188;-62
2023/12/19 02:10:42;;;;;;;1.73;1.00;;;;;;;9.62;97.23;102585.75;2080187;28;20191;-62
2023/12/19 02:11:42;;;;;;;1.73;0.80;;;;;;;9.61;97.48;102586.94;2081153;28;20507;-63
2023/12/19 02:12:43;;;;;;;1.73;0.80;;;;;;;9.64;97.84;102579.84;2080200;28;20674;-63
2023/12/19 02:13:45;;;;;;;2.07;1.13;;;;;;;9.67;97.89;102582.66;2080291;28;20567;-62
2023/12/19 02:14:46;;;;;;;1.43;0.83;;;;;;;9.61;98.15;102575.84;2079720;28;20499;-62
2023/12/19 02:15:48;;;;;;;2.07;1.03;;;;;;;9.70;98.00;102583.84;2079469;28;20443;-62
2023/12/19 02:16:48;;;;;;;1.57;1.00;;;;;;;9.72;98.27;102584.25;2079148;28;20437;-62
2023/12/19 02:17:49;;;;;;;1.63;0.97;;;;;;;9.59;98.37;102558.03;2079067;28;20426;-62
2023/12/19 02:19:03;;;;;;;3.57;1.20;;;;;;;9.80;98.20;102581.22;2080378;28;20192;-62
2023/12/19 02:20:04;;;;;;;1.47;0.87;;;;;;;9.78;98.27;102586.31;2080708;28;20653;-62
2023/12/19 02:21:05;;;;;;;1.40;0.80;;;;;;;9.78;98.02;102580.78;2079696;28;20439;-62
2023/12/19 02:22:05;;;;;;;1.63;1.00;;;;;;;9.83;97.79;102579.63;2080529;28;20446;-62
2023/12/19 02:23:06;;;;;;;2.67;1.10;;;;;;;9.80;97.51;102586.75;2079684;28;20201;-62
2023/12/19 02:24:07;;;;;;;1.90;0.80;;;;;;;9.78;97.86;102582.78;2080081;28;20254;-62
2023/12/19 02:25:08;;;;;;;1.67;0.87;;;;;;;9.78;98.35;102593.84;2080199;28;20185;-62
2023/12/19 02:26:09;;;;;;;1.50;1.00;;;;;;;9.88;97.56;102584.81;2079084;28;20185;-62
2023/12/19 02:27:10;;;;;;;1.37;0.90;;;;;;;9.72;97.79;102556.56;2081065;28;20530;-62
2023/12/19 02:28:10;;;;;;;1.97;1.17;;;;;;;9.86;97.85;102599.06;2080208;28;20228;-63
2023/12/19 02:29:12;;;;;;;1.63;0.90;;;;;;;9.87;98.65;102581.28;2079649;28;20442;-62
2023/12/19 02:30:12;;;;;;;1.50;0.90;;;;;;;9.82;98.56;102580.81;2080286;28;20223;-62
2023/12/19 02:31:13;;;;;;;2.30;1.23;;;;;;;9.77;98.37;102578.38;2080268;28;20932;-62
2023/12/19 02:32:13;;;;;;;2.17;1.30;;;;;;;9.32;98.55;102507.53;2080167;28;20681;-62
2023/12/19 02:33:14;;;;;;;1.80;1.10;;;;;;;9.77;98.67;102579.19;2079323;28;20188;-62
2023/12/19 02:34:15;;;;;;;1.70;1.10;;;;;;;9.75;98.96;102581.56;2080166;28;20268;-62
2023/12/19 02:35:16;;;;;;;1.23;0.80;;;;;;;9.74;98.72;102582.72;2080284;28;20184;-62
2023/12/19 02:36:19;;;;;;;2.10;1.20;;;;;;;9.68;99.27;102575.16;2080880;28;20462;-62
2023/12/19 02:37:20;;;;;;;2.53;1.03;;;;;;;9.61;99.37;102578.63;2079919;28;20203;-62
2023/12/19 02:38:20;;;;;;;1.27;0.90;;;;;;;9.60;99.77;102571.50;2079713;28;20458;-62
2023/12/19 02:39:21;;;;;;;2.03;0.97;;;;;;;9.55;99.65;102569.06;2079468;28;20199;-62
2023/12/19 02:40:22;;;;;;;1.40;0.83;;;;;;;9.50;100.00;102576.91;2079844;28;20212;-62
2023/12/19 02:41:22;;;;;;;1.23;0.83;;;;;;;9.57;100.00;102572.25;2080301;28;20184;-63
2023/12/19 02:42:23;;;;;;;1.83;1.00;;;;;;;9.05;99.92;102502.44;2079767;28;20975;-62
2023/12/19 02:43:23;;;;;;;1.20;0.70;;;;;;;9.61;100.00;102577.81;2079782;28;20246;-63
2023/12/19 02:44:24;;;;;;;1.67;0.97;;;;;;;9.61;100.00;102581.41;2080775;28;20196;-63
2023/12/19 02:45:24;;;;;;;1.33;0.90;;;;;;;9.18;100.00;102517.63;2080289;28;20249;-62
2023/12/19 02:46:25;;;;;;;1.17;0.83;;;;;;;9.03;99.63;102480.69;2079234;28;20196;-63
2023/12/19 02:47:25;;;;;;;1.40;1.00;;;;;;;9.69;99.63;102580.28;2079918;28;20660;-62
2023/12/19 02:48:26;;;;;;;1.43;1.00;;;;;;;9.71;99.81;102571.59;2079065;28;20226;-62
2023/12/19 02:49:26;;;;;;;1.20;0.90;;;;;;;9.71;99.42;102579.91;2078435;28;20882;-62
2023/12/19 02:50:27;;;;;;;0.97;0.80;;;;;;;9.75;99.42;102580.75;2078497;28;20181;-62
2023/12/19 02:51:29;;;;;;;1.33;1.00;;;;;;;9.77;99.39;102581.97;2080688;28;20267;-62
2023/12/19 02:52:29;;;;;;;1.50;0.90;;;;;;;8.84;98.21;102428.34;2080096;28;20193;-62
2023/12/19 02:53:30;;;;;;;1.20;0.90;;;;;;;9.76;98.55;102574.84;2079461;28;20943;-62
2023/12/19 02:54:31;;;;;;;2.07;1.10;;;;;;;9.78;98.47;102571.69;2080101;28;20243;-62
2023/12/19 02:55:31;;;;;;;1.67;0.93;;;;;;;9.80;98.24;102578.44;2080288;28;20203;-63
2023/12/19 02:56:34;;;;;;;2.93;1.00;;;;;;;9.79;97.30;102574.06;2079880;28;20650;-62
2023/12/19 02:57:34;;;;;;;1.70;0.80;;;;;;;9.78;97.27;102577.22;2080107;28;20187;-62
2023/12/19 02:58:35;;;;;;;2.20;0.80;;;;;;;9.72;97.04;102575.97;2079751;28;20431;-62
2023/12/19 02:59:35;;;;;;;2.03;1.00;;;;;;;9.65;97.46;102562.84;2079702;28;20191;-62
2023/12/19 03:00:36;;;;;;;1.67;0.90;;;;;;;9.68;97.52;102575.16;2080202;28;20209;-62
2023/12/19 03:01:36;;;;;;;2.57;1.30;;;;;;;9.75;97.27;102573.25;2080116;28;20287;-62
2023/12/19 03:02:37;;;;;;;1.77;1.07;;;;;;;9.73;97.21;102575.59;2079902;28;20200;-62
2023/12/19 03:03:41;;;;;;;1.37;1.07;;;;;;;9.75;97.27;102580.75;2080090;28;20189;-62
2023/12/19 03:04:41;;;;;;;1.57;0.80;;;;;;;9.71;97.49;102569.66;2080095;28;20204;-62
2023/12/19 03:05:41;;;;;;;1.83;0.97;;;;;;;9.62;97.19;102547.00;2079656;28;20447;-62
2023/12/19 03:06:42;;;;;;;1.70;1.10;;;;;;;9.74;97.55;102568.88;2078892;28;20463;-62
2023/12/19 03:07:42;;;;;;;3.33;1.13;;;;;;;9.78;97.12;102568.94;2080076;28;20197;-62
2023/12/19 03:08:47;;;;;;;1.93;1.00;;;;;;;9.60;96.70;102551.31;2079961;28;20632;-63
2023/12/19 03:09:48;;;;;;;1.73;0.93;;;;;;;9.66;97.00;102564.44;2080906;28;20238;-62
2023/12/19 03:10:48;;;;;;;2.33;1.10;;;;;;;9.61;97.33;102573.09;2080138;28;21014;-62
2023/12/19 03:12:18;;;;;;;1.87;1.07;;;;;;;9.60;97.69;102559.63;2079407;28;20211;-62
2023/12/19 03:13:19;;;;;;;1.40;0.93;;;;;;;9.59;98.14;102558.81;2067198;28;20223;-62
2023/12/19 03:14:19;;;;;;;1.27;0.90;;;;;;;9.61;98.04;102559.25;2080196;28;20446;-63
2023/12/19 03:15:20;;;;;;;2.50;0.87;;;;;;;9.57;97.75;102546.53;2080046;28;20185;-62
2023/12/19 03:16:20;;;;;;;3.80;1.30;;;;;;;9.67;97.63;102560.50;2079042;28;20199;-62
2023/12/19 03:17:21;;;;;;;2.17;0.90;;;;;;;9.66;97.56;102564.44;2079838;28;20287;-62
2023/12/19 03:18:25;;;;;;;1.83;1.30;;;;;;;9.16;97.54;102481.25;2079694;28;20270;-62
2023/12/19 03:19:25;;;;;;;2.17;1.00;;;;;;;9.57;97.34;102565.91;2078745;28;20919;-62
2023/12/19 03:20:25;;;;;;;5.37;1.10;;;;;;;9.49;97.95;102562.25;2078872;28;20896;-62
2023/12/19 03:21:26;;;;;;;2.73;1.33;;;;;;;9.43;98.23;102569.31;2078937;28;20192;-62
2023/12/19 03:22:26;;;;;;;1.63;0.93;;;;;;;9.42;98.33;102558.63;2079823;28;20188;-62
2023/12/19 03:23:28;;;;;;;1.57;0.90;;;;;;;9.38;98.91;102560.56;2079379;28;20197;-63
2023/12/19 03:24:28;;;;;;;1.85;1.00;;;;;;;9.38;99.71;102561.34;2079775;28;20200;-62
2023/12/19 03:25:29;;;;;;;2.00;0.87;;;;;;;9.38;99.64;102560.56;2079548;28;20188;-62
2023/12/19 03:26:29;;;;;;;1.60;1.00;;;;;;;9.38;99.93;102564.13;2078981;28;20199;-62
2023/12/19 03:27:30;;;;;;;2.03;1.13;;;;;;;9.33;100.00;102563.66;2079290;28;20204;-62
2023/12/19 03:28:30;;;;;;;1.87;1.00;;;;;;;9.32;100.00;102567.63;2079455;28;20238;-62
2023/12/19 03:29:32;;;;;;;1.83;1.10;;;;;;;9.37;100.00;102561.75;2079486;28;20267;-62
2023/12/19 03:30:33;;;;;;;2.10;1.10;;;;;;;9.28;100.00;102552.94;2080337;28;20187;-62
2023/12/19 03:31:33;;;;;;;2.07;1.10;;;;;;;9.38;100.00;102564.13;2079986;28;20450;-63
2023/12/19 03:32:36;;;;;;;1.37;0.97;;;;;;;9.40;100.00;102563.75;2079506;28;20228;-62
2023/12/19 03:33:37;;;;;;;2.50;1.30;;;;;;;9.43;100.00;102560.22;2079585;28;20199;-63
2023/12/19 03:34:37;;;;;;;1.97;1.10;;;;;;;9.44;100.00;102564.59;2078927;28;20459;-62
2023/12/19 03:35:38;;;;;;;3.23;1.20;;;;;;;9.44;99.87;102559.81;2079171;28;20197;-62
2023/12/19 03:36:38;;;;;;;1.50;1.00;;;;;;;9.47;99.96;102552.75;2079470;28;20267;-62
2023/12/19 03:37:39;;;;;;;2.23;1.30;;;;;;;8.87;99.63;102471.03;2080002;28;20192;-62
2023/12/19 03:38:39;;;;;;;1.70;0.90;;;;;;;9.49;99.42;102564.25;2079201;28;20188;-62
2023/12/19 03:39:40;;;;;;;2.13;1.07;;;;;;;9.47;99.10;102563.81;2080386;28;20185;-62
2023/12/19 03:40:41;;;;;;;2.17;1.10;;;;;;;9.48;99.21;102565.44;2079875;28;20297;-62
2023/12/19 03:41:41;;;;;;;2.13;1.17;;;;;;;9.45;99.28;102560.63;2079637;28;20680;-62
2023/12/19 03:42:42;;;;;;;2.10;1.03;;;;;;;9.45;98.93;102568.94;2079071;28;21151;-63
2023/12/19 03:43:43;;;;;;;3.50;1.37;;;;;;;9.44;99.35;102568.13;2079491;28;20193;-62
2023/12/19 03:44:44;;;;;;;1.53;0.90;;;;;;;8.81;98.78;102464.25;2079816;28;20870;-62
2023/12/19 03:45:44;;;;;;;1.13;0.80;;;;;;;9.54;99.15;102566.69;2079351;28;20196;-62
2023/12/19 03:46:45;;;;;;;1.07;0.87;;;;;;;9.49;98.81;102558.72;2078895;28;20229;-62
2023/12/19 03:47:45;;;;;;;2.33;1.17;;;;;;;9.55;99.23;102568.25;2080601;28;20942;-62
2023/12/19 03:48:46;;;;;;;2.17;1.20;;;;;;;9.56;99.42;102565.13;2078135;28;20666;-62
2023/12/19 03:49:46;;;;;;;1.77;1.10;;;;;;;9.58;98.95;102565.53;2078965;28;20689;-62
2023/12/19 03:50:48;;;;;;;1.77;1.10;;;;;;;9.56;99.11;102572.63;2079665;28;20204;-62
2023/12/19 03:51:49;;;;;;;1.53;1.03;;;;;;;9.57;98.61;102572.25;2079142;28;20243;-62
2023/12/19 03:52:50;;;;;;;1.30;0.87;;;;;;;9.60;98.76;102570.69;2079123;28;20587;-62
2023/12/19 03:53:50;;;;;;;1.03;0.90;;;;;;;9.57;98.92;102566.72;2079487;28;20492;-63
2023/12/19 03:54:51;;;;;;;2.43;1.33;;;;;;;9.51;98.97;102567.41;2079307;28;20303;-62
2023/12/19 03:55:51;;;;;;;2.33;1.13;;;;;;;9.45;99.58;102566.16;2080517;28;20197;-62
2023/12/19 03:56:53;;;;;;;3.40;1.13;;;;;;;9.44;99.72;102559.81;2078728;28;20227;-62
2023/12/19 03:57:53;;;;;;;2.23;1.13;;;;;;;9.38;100.00;102566.88;2078258;28;20188;-63
2023/12/19 03:58:54;;;;;;;3.90;1.20;;;;;;;9.25;100.00;102560.03;2079078;28;20454;-62
2023/12/19 03:59:54;;;;;;;2.00;1.20;;;;;;;8.90;100.00;102515.31;2079970;28;20226;-62
2023/12/19 04:00:55;;;;;;;2.20;1.20;;;;;;;9.25;100.00;102562.78;2079427;28;20734;-62
2023/12/19 04:01:58;;;;;;;2.90;1.30;;;;;;;9.29;100.00;102546.22;2079776;28;20198;-63
2023/12/19 04:02:58;;;;;;;2.07;1.27;;;;;;;9.29;100.00;102549.00;2078528;28;20231;-62
2023/12/19 04:03:59;;;;;;;2.13;1.10;;;;;;;9.27;100.00;102556.88;2078847;28;20515;-62
2023/12/19 04:04:59;;;;;;;1.97;1.30;;;;;;;9.30;100.00;102556.09;2080033;28;20189;-62
2023/12/19 04:06:00;;;;;;;0.70;0.70;;;;;;;8.77;100.00;102483.53;2079650;28;20272;-62
2023/12/19 04:07:00;;;;;;;1.60;1.00;;;;;;;9.25;100.00;102554.47;2079769;28;20582;-62
2023/12/19 04:08:01;;;;;;;2.30;1.10;;;;;;;9.23;100.00;102558.81;2079596;28;20243;-62
2023/12/19 04:09:02;;;;;;;2.13;1.43;;;;;;;9.21;100.00;102561.94;2078339;28;20278;-63
2023/12/19 04:10:02;;;;;;;2.47;1.20;;;;;;;9.22;100.00;102560.75;2079272;28;30346;-62
2023/12/19 04:11:03;;;;;;;1.83;1.00;;;;;;;9.24;100.00;102560.38;2079038;28;20196;-62
2023/12/19 04:12:06;;;;;;;1.50;1.00;;;;;;;9.24;100.00;102552.09;2078944;28;20333;-62
2023/12/19 04:13:06;;;;;;;3.23;1.17;;;;;;;9.22;100.00;102554.44;2079425;28;20431;-62
2023/12/19 04:14:07;;;;;;;2.97;1.10;;;;;;;9.18;100.00;102551.59;2079473;28;20444;-62
2023/12/19 04:15:08;;;;;;;1.73;1.10;;;;;;;9.20;100.00;102560.34;2079433;28;20201;-62
2023/12/19 04:16:09;;;;;;;1.83;1.20;;;;;;;9.17;100.00;102552.00;2079259;28;20224;-62
2023/12/19 04:17:10;;;;;;;1.63;0.90;;;;;;;9.24;100.00;102563.16;2079302;28;20508;-62
2023/12/19 04:18:14;;;;;;;1.70;1.00;;;;;;;9.25;100.00;102557.25;2078015;28;20658;-62
2023/12/19 04:19:14;;;;;;;2.17;1.10;;;;;;;8.44;100.00;102444.81;2078420;28;20442;-63
2023/12/19 04:20:15;;;;;;;4.20;1.60;;;;;;;8.92;100.00;102523.25;2078699;28;20459;-62
2023/12/19 04:21:16;;;;;;;4.10;1.00;;;;;;;9.29;100.00;102574.69;2079537;28;20185;-62
2023/12/19 04:22:16;;;;;;;2.93;1.37;;;;;;;9.26;100.00;102566.31;2080143;28;20275;-62
2023/12/19 04:23:17;;;;;;;2.00;1.30;;;;;;;9.28;100.00;102569.53;2079506;28;20676;-62
2023/12/19 04:24:19;;;;;;;2.40;1.17;;;;;;;9.30;100.00;102573.53;2078792;28;20203;-62
2023/12/19 04:25:20;;;;;;;3.13;1.40;;;;;;;9.33;100.00;102594.09;2079302;28;20295;-62
2023/12/19 04:26:21;;;;;;;1.67;1.13;;;;;;;9.33;100.00;102571.97;2078764;28;21042;-62
2023/12/19 04:27:21;;;;;;;2.43;1.40;;;;;;;9.09;100.00;102559.41;2079075;28;20630;-63
2023/12/19 04:28:22;;;;;;;2.67;1.10;;;;;;;9.19;100.00;102580.09;2078232;28;20824;-62
2023/12/19 04:29:22;;;;;;;2.70;1.57;;;;;;;8.41;100.00;102448.31;2077982;28;20206;-62
2023/12/19 04:30:23;;;;;;;2.10;1.17;;;;;;;9.31;100.00;102579.84;2080023;28;20188;-62
2023/12/19 04:31:23;;;;;;;3.40;1.47;;;;;;;9.15;100.00;102554.34;2079144;28;20226;-63
2023/12/19 04:32:24;;;;;;;3.43;1.50;;;;;;;9.34;100.00;102579.91;2077937;28;20259;-62
2023/12/19 04:33:24;;;;;;;1.67;1.27;;;;;;;9.32;100.00;102576.69;2078951;28;20218;-63
2023/12/19 04:34:25;;;;;;;2.03;1.10;;;;;;;9.31;100.00;102577.88;2079208;28;20225;-62
2023/12/19 04:35:25;;;;;;;2.27;1.30;;;;;;;9.36;100.00;102582.25;2079154;28;20190;-62
2023/12/19 04:36:26;;;;;;;2.33;1.37;;;;;;;9.41;100.00;102585.50;2079099;28;20212;-62
2023/12/19 04:37:26;;;;;;;2.20;1.30;;;;;;;9.42;100.00;102575.22;2079368;28;20182;-62
2023/12/19 04:38:27;;;;;;;2.93;1.50;;;;;;;9.42;100.00;102586.28;2079831;28;20199;-63
2023/12/19 04:39:27;;;;;;;2.53;1.30;;;;;;;9.45;100.00;102575.28;2078692;28;20227;-63
2023/12/19 04:40:29;;;;;;;2.37;1.40;;;;;;;9.46;100.00;102578.84;2078440;28;20550;-62
2023/12/19 04:41:29;;;;;;;2.13;1.13;;;;;;;9.34;100.00;102570.78;2079339;28;20193;-62
2023/12/19 04:42:30;;;;;;;2.83;1.37;;;;;;;9.35;100.00;102575.94;2078655;28;20436;-62
2023/12/19 04:43:31;;;;;;;2.43;1.40;;;;;;;9.25;100.00;102559.22;2078490;28;20212;-62
2023/12/19 04:44:32;;;;;;;3.30;1.40;;;;;;;9.24;100.00;102557.63;2078302;28;20199;-62
2023/12/19 04:45:33;;;;;;;3.03;1.40;;;;;;;9.27;100.00;102582.56;2079122;28;20427;-62
2023/12/19 04:46:33;;;;;;;5.27;1.30;;;;;;;9.27;100.00;102585.31;2079331;28;20752;-62